sensor_id;sensor_type;location;lat;lon;timestamp;temperature;humidity
46758;DHT22;32509;47.750;-3.396;2023-05-09T00:02:11;15.70;99.90
46758;DHT22;32509;47.750;-3.396;2023-05-09T00:04:36;15.70;99.90
46758;DHT22;32509;47.750;-3.396;2023-05-09T00:07:02;15.70;99.90
46758;DHT22;32509;47.750;-3.396;2023-05-09T00:09:28;15.70;99.90
46758;DHT22;32509;47.750;-3.396;2023-05-09T00:11:54;15.70;99.90
46758;DHT22;32509;47.750;-3.396;2023-05-09T00:14:19;15.70;99.90
46758;DHT22;32509;47.750;-3.396;2023-05-09T00:16:45;15.70;99.90
46758;DHT22;32509;47.750;-3.396;2023-05-09T00:19:11;15.70;99.90
46758;DHT22;32509;47.750;-3.396;2023-05-09T00:21:37;15.70;99.90
46758;DHT22;32509;47.750;-3.396;2023-05-09T00:24:04;15.70;99.90
46758;DHT22;32509;47.750;-3.396;2023-05-09T00:26:30;15.70;99.90
46758;DHT22;32509;47.750;-3.396;2023-05-09T00:28:56;15.70;99.90
46758;DHT22;32509;47.750;-3.396;2023-05-09T00:31:22;15.70;99.90
46758;DHT22;32509;47.750;-3.396;2023-05-09T00:33:48;15.70;99.90
46758;DHT22;32509;47.750;-3.396;2023-05-09T00:36:13;15.70;99.90
46758;DHT22;32509;47.750;-3.396;2023-05-09T00:38:39;15.70;99.90
46758;DHT22;32509;47.750;-3.396;2023-05-09T00:41:05;15.70;99.90
46758;DHT22;32509;47.750;-3.396;2023-05-09T00:43:30;15.70;99.90
46758;DHT22;32509;47.750;-3.396;2023-05-09T00:45:56;15.70;99.90
46758;DHT22;32509;47.750;-3.396;2023-05-09T00:48:22;15.70;99.90
46758;DHT22;32509;47.750;-3.396;2023-05-09T00:50:48;15.70;99.90
46758;DHT22;32509;47.750;-3.396;2023-05-09T00:53:18;15.70;99.90
46758;DHT22;32509;47.750;-3.396;2023-05-09T00:55:45;15.70;99.90
46758;DHT22;32509;47.750;-3.396;2023-05-09T00:58:11;15.70;99.90
46758;DHT22;32509;47.750;-3.396;2023-05-09T01:00:36;15.70;99.90
46758;DHT22;32509;47.750;-3.396;2023-05-09T01:03:02;15.70;99.90
46758;DHT22;32509;47.750;-3.396;2023-05-09T01:06:02;15.70;99.90
46758;DHT22;32509;47.750;-3.396;2023-05-09T01:08:35;15.70;99.90
46758;DHT22;32509;47.750;-3.396;2023-05-09T01:11:08;15.70;99.90
46758;DHT22;32509;47.750;-3.396;2023-05-09T01:13:59;15.70;99.90
46758;DHT22;32509;47.750;-3.396;2023-05-09T01:16:42;15.70;99.90
46758;DHT22;32509;47.750;-3.396;2023-05-09T01:19:35;15.60;99.90
46758;DHT22;32509;47.750;-3.396;2023-05-09T01:22:07;15.70;99.90
46758;DHT22;32509;47.750;-3.396;2023-05-09T01:25:15;15.70;99.90
46758;DHT22;32509;47.750;-3.396;2023-05-09T01:27:59;15.60;99.90
46758;DHT22;32509;47.750;-3.396;2023-05-09T01:30:30;15.60;99.90
46758;DHT22;32509;47.750;-3.396;2023-05-09T01:32:59;15.60;99.90
46758;DHT22;32509;47.750;-3.396;2023-05-09T01:35:28;15.60;99.90
46758;DHT22;32509;47.750;-3.396;2023-05-09T01:37:55;15.60;99.90
46758;DHT22;32509;47.750;-3.396;2023-05-09T01:40:24;15.60;99.90
46758;DHT22;32509;47.750;-3.396;2023-05-09T01:43:20;15.60;99.90
46758;DHT22;32509;47.750;-3.396;2023-05-09T01:45:48;15.60;99.90
46758;DHT22;32509;47.750;-3.396;2023-05-09T01:48:14;15.70;99.90
46758;DHT22;32509;47.750;-3.396;2023-05-09T01:50:42;15.60;99.90
46758;DHT22;32509;47.750;-3.396;2023-05-09T01:53:10;15.60;99.90
46758;DHT22;32509;47.750;-3.396;2023-05-09T01:55:37;15.60;99.90
46758;DHT22;32509;47.750;-3.396;2023-05-09T01:58:04;15.50;99.90
46758;DHT22;32509;47.750;-3.396;2023-05-09T02:00:33;15.50;99.90
46758;DHT22;32509;47.750;-3.396;2023-05-09T02:03:01;15.50;99.90
46758;DHT22;32509;47.750;-3.396;2023-05-09T02:05:28;15.60;99.90
46758;DHT22;32509;47.750;-3.396;2023-05-09T02:07:56;15.60;99.90
46758;DHT22;32509;47.750;-3.396;2023-05-09T02:10:23;15.60;99.90
46758;DHT22;32509;47.750;-3.396;2023-05-09T02:12:53;15.60;99.90
46758;DHT22;32509;47.750;-3.396;2023-05-09T02:15:19;15.60;99.90
46758;DHT22;32509;47.750;-3.396;2023-05-09T02:17:45;15.60;99.90
46758;DHT22;32509;47.750;-3.396;2023-05-09T02:20:11;15.60;99.90
46758;DHT22;32509;47.750;-3.396;2023-05-09T02:22:39;15.60;99.90
46758;DHT22;32509;47.750;-3.396;2023-05-09T02:25:07;15.50;99.90
46758;DHT22;32509;47.750;-3.396;2023-05-09T02:27:33;15.50;99.90
46758;DHT22;32509;47.750;-3.396;2023-05-09T02:30:03;15.50;99.90
46758;DHT22;32509;47.750;-3.396;2023-05-09T02:32:30;15.50;99.90
46758;DHT22;32509;47.750;-3.396;2023-05-09T02:34:58;15.50;99.90
46758;DHT22;32509;47.750;-3.396;2023-05-09T02:37:26;15.60;99.90
46758;DHT22;32509;47.750;-3.396;2023-05-09T02:39:53;15.50;99.90
46758;DHT22;32509;47.750;-3.396;2023-05-09T02:42:24;15.50;99.90
46758;DHT22;32509;47.750;-3.396;2023-05-09T02:44:51;15.50;99.90
46758;DHT22;32509;47.750;-3.396;2023-05-09T02:47:17;15.50;99.90
46758;DHT22;32509;47.750;-3.396;2023-05-09T02:49:43;15.50;99.90
46758;DHT22;32509;47.750;-3.396;2023-05-09T02:52:09;15.50;99.90
46758;DHT22;32509;47.750;-3.396;2023-05-09T02:54:36;15.50;99.90
46758;DHT22;32509;47.750;-3.396;2023-05-09T02:57:03;15.40;99.90
46758;DHT22;32509;47.750;-3.396;2023-05-09T02:59:29;15.50;99.90
46758;DHT22;32509;47.750;-3.396;2023-05-09T03:01:55;15.50;99.90
46758;DHT22;32509;47.750;-3.396;2023-05-09T03:04:21;15.50;99.90
46758;DHT22;32509;47.750;-3.396;2023-05-09T03:06:47;15.50;99.90
46758;DHT22;32509;47.750;-3.396;2023-05-09T03:09:13;15.50;99.90
46758;DHT22;32509;47.750;-3.396;2023-05-09T03:11:39;15.50;99.90
46758;DHT22;32509;47.750;-3.396;2023-05-09T03:14:05;15.50;99.90
46758;DHT22;32509;47.750;-3.396;2023-05-09T03:16:33;15.50;99.90
46758;DHT22;32509;47.750;-3.396;2023-05-09T03:18:58;15.50;99.90
46758;DHT22;32509;47.750;-3.396;2023-05-09T03:21:24;15.50;99.90
46758;DHT22;32509;47.750;-3.396;2023-05-09T03:23:50;15.50;99.90
46758;DHT22;32509;47.750;-3.396;2023-05-09T03:26:16;15.50;99.90
46758;DHT22;32509;47.750;-3.396;2023-05-09T03:28:42;15.50;99.90
46758;DHT22;32509;47.750;-3.396;2023-05-09T03:31:08;15.50;99.90
46758;DHT22;32509;47.750;-3.396;2023-05-09T03:33:34;15.50;99.90
46758;DHT22;32509;47.750;-3.396;2023-05-09T03:35:59;15.50;99.90
46758;DHT22;32509;47.750;-3.396;2023-05-09T03:38:25;15.50;99.90
46758;DHT22;32509;47.750;-3.396;2023-05-09T03:40:52;15.50;99.90
46758;DHT22;32509;47.750;-3.396;2023-05-09T03:43:18;15.50;99.90
46758;DHT22;32509;47.750;-3.396;2023-05-09T03:45:44;15.50;99.90
46758;DHT22;32509;47.750;-3.396;2023-05-09T03:48:10;15.50;99.90
46758;DHT22;32509;47.750;-3.396;2023-05-09T03:50:36;15.40;99.90
46758;DHT22;32509;47.750;-3.396;2023-05-09T03:53:02;15.50;99.90
46758;DHT22;32509;47.750;-3.396;2023-05-09T03:55:28;15.50;99.90
46758;DHT22;32509;47.750;-3.396;2023-05-09T03:57:54;15.50;99.90
46758;DHT22;32509;47.750;-3.396;2023-05-09T04:00:20;15.50;99.90
46758;DHT22;32509;47.750;-3.396;2023-05-09T04:02:49;15.50;99.90
46758;DHT22;32509;47.750;-3.396;2023-05-09T04:05:15;15.50;99.90
46758;DHT22;32509;47.750;-3.396;2023-05-09T04:07:41;15.50;99.90
46758;DHT22;32509;47.750;-3.396;2023-05-09T04:10:08;15.50;99.90
46758;DHT22;32509;47.750;-3.396;2023-05-09T04:12:33;15.50;99.90
46758;DHT22;32509;47.750;-3.396;2023-05-09T04:15:00;15.40;99.90
46758;DHT22;32509;47.750;-3.396;2023-05-09T04:17:25;15.40;99.90
46758;DHT22;32509;47.750;-3.396;2023-05-09T04:19:51;15.40;99.90
46758;DHT22;32509;47.750;-3.396;2023-05-09T04:22:17;15.40;99.90
46758;DHT22;32509;47.750;-3.396;2023-05-09T04:24:43;15.40;99.90
46758;DHT22;32509;47.750;-3.396;2023-05-09T04:27:09;15.40;99.90
46758;DHT22;32509;47.750;-3.396;2023-05-09T04:29:34;15.40;99.90
46758;DHT22;32509;47.750;-3.396;2023-05-09T04:32:01;15.40;99.90
46758;DHT22;32509;47.750;-3.396;2023-05-09T04:34:27;15.40;99.90
46758;DHT22;32509;47.750;-3.396;2023-05-09T04:36:54;15.40;99.90
46758;DHT22;32509;47.750;-3.396;2023-05-09T04:39:20;15.40;99.90
46758;DHT22;32509;47.750;-3.396;2023-05-09T04:41:45;15.40;99.90
46758;DHT22;32509;47.750;-3.396;2023-05-09T04:44:15;15.40;99.90
46758;DHT22;32509;47.750;-3.396;2023-05-09T04:46:41;15.40;99.90
46758;DHT22;32509;47.750;-3.396;2023-05-09T04:49:08;15.40;99.90
46758;DHT22;32509;47.750;-3.396;2023-05-09T04:51:33;15.40;99.90
46758;DHT22;32509;47.750;-3.396;2023-05-09T04:53:59;15.40;99.90
46758;DHT22;32509;47.750;-3.396;2023-05-09T04:56:25;15.40;99.90
46758;DHT22;32509;47.750;-3.396;2023-05-09T04:58:51;15.40;99.90
46758;DHT22;32509;47.750;-3.396;2023-05-09T05:01:18;15.40;99.90
46758;DHT22;32509;47.750;-3.396;2023-05-09T05:03:44;15.30;99.90
46758;DHT22;32509;47.750;-3.396;2023-05-09T05:06:10;15.40;99.90
46758;DHT22;32509;47.750;-3.396;2023-05-09T05:08:36;15.40;99.90
46758;DHT22;32509;47.750;-3.396;2023-05-09T05:11:02;15.40;99.90
46758;DHT22;32509;47.750;-3.396;2023-05-09T05:13:28;15.30;99.90
46758;DHT22;32509;47.750;-3.396;2023-05-09T05:15:53;15.30;99.90
46758;DHT22;32509;47.750;-3.396;2023-05-09T05:18:19;15.30;99.90
46758;DHT22;32509;47.750;-3.396;2023-05-09T05:20:45;15.30;99.90
46758;DHT22;32509;47.750;-3.396;2023-05-09T05:23:10;15.30;99.90
46758;DHT22;32509;47.750;-3.396;2023-05-09T05:25:36;15.30;99.90
46758;DHT22;32509;47.750;-3.396;2023-05-09T05:28:02;15.30;99.90
46758;DHT22;32509;47.750;-3.396;2023-05-09T05:30:28;15.30;99.90
46758;DHT22;32509;47.750;-3.396;2023-05-09T05:32:54;15.30;99.90
46758;DHT22;32509;47.750;-3.396;2023-05-09T05:35:20;15.30;99.90
46758;DHT22;32509;47.750;-3.396;2023-05-09T05:37:48;15.30;99.90
46758;DHT22;32509;47.750;-3.396;2023-05-09T05:40:13;15.30;99.90
46758;DHT22;32509;47.750;-3.396;2023-05-09T05:42:40;15.30;99.90
46758;DHT22;32509;47.750;-3.396;2023-05-09T05:45:06;15.30;99.90
46758;DHT22;32509;47.750;-3.396;2023-05-09T05:47:33;15.30;99.90
46758;DHT22;32509;47.750;-3.396;2023-05-09T05:50:03;15.30;99.90
46758;DHT22;32509;47.750;-3.396;2023-05-09T05:52:31;15.30;99.90
46758;DHT22;32509;47.750;-3.396;2023-05-09T05:54:57;15.30;99.90
46758;DHT22;32509;47.750;-3.396;2023-05-09T05:57:22;15.40;99.90
46758;DHT22;32509;47.750;-3.396;2023-05-09T05:59:49;15.30;99.90
46758;DHT22;32509;47.750;-3.396;2023-05-09T06:02:16;15.30;99.90
46758;DHT22;32509;47.750;-3.396;2023-05-09T06:04:42;15.30;99.90
46758;DHT22;32509;47.750;-3.396;2023-05-09T06:07:08;15.30;99.90
46758;DHT22;32509;47.750;-3.396;2023-05-09T06:09:35;15.30;99.90
46758;DHT22;32509;47.750;-3.396;2023-05-09T06:12:01;15.30;99.90
46758;DHT22;32509;47.750;-3.396;2023-05-09T06:14:26;15.30;99.90
46758;DHT22;32509;47.750;-3.396;2023-05-09T06:16:52;15.30;99.90
46758;DHT22;32509;47.750;-3.396;2023-05-09T06:19:18;15.40;99.90
46758;DHT22;32509;47.750;-3.396;2023-05-09T06:21:44;15.40;99.90
46758;DHT22;32509;47.750;-3.396;2023-05-09T06:24:10;15.40;99.90
46758;DHT22;32509;47.750;-3.396;2023-05-09T06:26:36;15.40;99.90
46758;DHT22;32509;47.750;-3.396;2023-05-09T06:29:02;15.40;99.90
46758;DHT22;32509;47.750;-3.396;2023-05-09T06:31:28;15.40;99.90
46758;DHT22;32509;47.750;-3.396;2023-05-09T06:33:54;15.40;99.90
46758;DHT22;32509;47.750;-3.396;2023-05-09T06:36:20;15.50;99.90
46758;DHT22;32509;47.750;-3.396;2023-05-09T06:38:46;15.40;99.90
46758;DHT22;32509;47.750;-3.396;2023-05-09T06:41:12;15.40;99.90
46758;DHT22;32509;47.750;-3.396;2023-05-09T06:43:37;15.40;99.90
46758;DHT22;32509;47.750;-3.396;2023-05-09T06:46:03;15.40;99.90
46758;DHT22;32509;47.750;-3.396;2023-05-09T06:48:29;15.50;99.90
46758;DHT22;32509;47.750;-3.396;2023-05-09T06:50:54;15.40;99.90
46758;DHT22;32509;47.750;-3.396;2023-05-09T06:53:20;15.50;99.90
46758;DHT22;32509;47.750;-3.396;2023-05-09T06:55:46;15.50;99.90
46758;DHT22;32509;47.750;-3.396;2023-05-09T06:58:12;15.50;99.90
46758;DHT22;32509;47.750;-3.396;2023-05-09T07:00:38;15.50;99.90
46758;DHT22;32509;47.750;-3.396;2023-05-09T07:03:03;15.50;99.90
46758;DHT22;32509;47.750;-3.396;2023-05-09T07:05:32;15.50;99.90
46758;DHT22;32509;47.750;-3.396;2023-05-09T07:07:58;15.50;99.90
46758;DHT22;32509;47.750;-3.396;2023-05-09T07:10:23;15.50;99.90
46758;DHT22;32509;47.750;-3.396;2023-05-09T07:12:49;15.50;99.90
46758;DHT22;32509;47.750;-3.396;2023-05-09T07:15:15;15.50;99.90
46758;DHT22;32509;47.750;-3.396;2023-05-09T07:17:41;15.50;99.90
46758;DHT22;32509;47.750;-3.396;2023-05-09T07:20:07;15.60;99.90
46758;DHT22;32509;47.750;-3.396;2023-05-09T07:22:34;15.60;99.90
46758;DHT22;32509;47.750;-3.396;2023-05-09T08:00:55;15.00;99.90
46758;DHT22;32509;47.750;-3.396;2023-05-09T08:03:21;15.30;99.90
46758;DHT22;32509;47.750;-3.396;2023-05-09T08:05:47;15.40;99.90
46758;DHT22;32509;47.750;-3.396;2023-05-09T08:08:15;15.40;99.90
46758;DHT22;32509;47.750;-3.396;2023-05-09T08:10:41;15.50;99.90
46758;DHT22;32509;47.750;-3.396;2023-05-09T08:13:08;15.60;99.90
46758;DHT22;32509;47.750;-3.396;2023-05-09T08:15:33;15.60;99.90
46758;DHT22;32509;47.750;-3.396;2023-05-09T08:17:59;15.60;99.90
46758;DHT22;32509;47.750;-3.396;2023-05-09T08:22:59;15.70;99.90
46758;DHT22;32509;47.750;-3.396;2023-05-09T08:25:25;15.70;99.90
46758;DHT22;32509;47.750;-3.396;2023-05-09T08:27:50;15.70;99.90
46758;DHT22;32509;47.750;-3.396;2023-05-09T08:30:19;15.80;99.90
46758;DHT22;32509;47.750;-3.396;2023-05-09T08:32:48;15.80;99.90
46758;DHT22;32509;47.750;-3.396;2023-05-09T08:35:13;15.80;99.90
46758;DHT22;32509;47.750;-3.396;2023-05-09T08:37:42;15.80;99.90
46758;DHT22;32509;47.750;-3.396;2023-05-09T08:40:14;15.90;99.90
46758;DHT22;32509;47.750;-3.396;2023-05-09T08:42:52;15.80;99.90
46758;DHT22;32509;47.750;-3.396;2023-05-09T08:45:28;15.90;99.90
46758;DHT22;32509;47.750;-3.396;2023-05-09T08:47:55;15.90;99.90
46758;DHT22;32509;47.750;-3.396;2023-05-09T08:50:21;15.90;99.90
46758;DHT22;32509;47.750;-3.396;2023-05-09T08:52:47;16.00;99.90
46758;DHT22;32509;47.750;-3.396;2023-05-09T08:55:13;16.00;99.90
46758;DHT22;32509;47.750;-3.396;2023-05-09T08:57:39;16.00;99.90
46758;DHT22;32509;47.750;-3.396;2023-05-09T09:00:06;16.00;99.90
46758;DHT22;32509;47.750;-3.396;2023-05-09T09:02:36;16.00;99.90
46758;DHT22;32509;47.750;-3.396;2023-05-09T09:05:05;15.90;99.90
46758;DHT22;32509;47.750;-3.396;2023-05-09T09:07:33;16.00;99.90
46758;DHT22;32509;47.750;-3.396;2023-05-09T09:10:05;16.00;99.90
46758;DHT22;32509;47.750;-3.396;2023-05-09T09:12:33;16.00;99.90
46758;DHT22;32509;47.750;-3.396;2023-05-09T09:15:03;16.00;99.90
46758;DHT22;32509;47.750;-3.396;2023-05-09T09:17:30;16.00;99.90
46758;DHT22;32509;47.750;-3.396;2023-05-09T09:19:59;16.00;99.90
46758;DHT22;32509;47.750;-3.396;2023-05-09T09:22:31;15.90;99.90
46758;DHT22;32509;47.750;-3.396;2023-05-09T09:25:02;16.00;99.90
46758;DHT22;32509;47.750;-3.396;2023-05-09T09:27:28;16.00;99.90
46758;DHT22;32509;47.750;-3.396;2023-05-09T09:29:54;15.90;99.90
46758;DHT22;32509;47.750;-3.396;2023-05-09T09:32:20;16.00;99.90
46758;DHT22;32509;47.750;-3.396;2023-05-09T09:35:04;16.00;99.90
46758;DHT22;32509;47.750;-3.396;2023-05-09T09:37:33;16.00;99.90
46758;DHT22;32509;47.750;-3.396;2023-05-09T09:39:59;16.00;99.90
46758;DHT22;32509;47.750;-3.396;2023-05-09T09:42:25;16.00;99.90
46758;DHT22;32509;47.750;-3.396;2023-05-09T09:45:24;16.00;99.90
46758;DHT22;32509;47.750;-3.396;2023-05-09T09:47:49;16.10;99.90
46758;DHT22;32509;47.750;-3.396;2023-05-09T09:50:17;16.10;99.90
46758;DHT22;32509;47.750;-3.396;2023-05-09T09:52:54;16.10;99.90
46758;DHT22;32509;47.750;-3.396;2023-05-09T09:55:25;16.10;99.90
46758;DHT22;32509;47.750;-3.396;2023-05-09T09:57:51;16.10;99.90
46758;DHT22;32509;47.750;-3.396;2023-05-09T10:00:27;16.10;99.90
46758;DHT22;32509;47.750;-3.396;2023-05-09T10:02:54;16.00;99.90
46758;DHT22;32509;47.750;-3.396;2023-05-09T10:05:28;16.10;99.90
46758;DHT22;32509;47.750;-3.396;2023-05-09T10:08:02;16.10;99.90
46758;DHT22;32509;47.750;-3.396;2023-05-09T10:10:32;16.10;99.90
46758;DHT22;32509;47.750;-3.396;2023-05-09T10:13:03;16.10;99.90
46758;DHT22;32509;47.750;-3.396;2023-05-09T10:15:30;16.10;99.90
46758;DHT22;32509;47.750;-3.396;2023-05-09T10:17:57;16.10;99.90
46758;DHT22;32509;47.750;-3.396;2023-05-09T10:20:27;16.10;99.90
46758;DHT22;32509;47.750;-3.396;2023-05-09T10:23:00;16.10;99.90
46758;DHT22;32509;47.750;-3.396;2023-05-09T10:28:05;16.10;99.90
46758;DHT22;32509;47.750;-3.396;2023-05-09T10:31:00;16.20;99.90
46758;DHT22;32509;47.750;-3.396;2023-05-09T10:33:30;16.20;99.90
46758;DHT22;32509;47.750;-3.396;2023-05-09T10:35:57;16.20;99.90
46758;DHT22;32509;47.750;-3.396;2023-05-09T10:38:25;16.20;99.90
46758;DHT22;32509;47.750;-3.396;2023-05-09T10:40:52;16.20;99.90
46758;DHT22;32509;47.750;-3.396;2023-05-09T10:43:19;16.20;99.90
46758;DHT22;32509;47.750;-3.396;2023-05-09T10:45:48;16.20;99.90
46758;DHT22;32509;47.750;-3.396;2023-05-09T10:48:14;16.20;99.90
46758;DHT22;32509;47.750;-3.396;2023-05-09T10:50:41;16.20;99.90
46758;DHT22;32509;47.750;-3.396;2023-05-09T10:53:09;16.30;99.90
46758;DHT22;32509;47.750;-3.396;2023-05-09T10:58:25;16.30;99.90
46758;DHT22;32509;47.750;-3.396;2023-05-09T11:00:53;16.30;99.90
46758;DHT22;32509;47.750;-3.396;2023-05-09T11:03:20;16.30;99.90
46758;DHT22;32509;47.750;-3.396;2023-05-09T11:05:50;16.30;99.90
46758;DHT22;32509;47.750;-3.396;2023-05-09T11:08:25;16.30;99.90
46758;DHT22;32509;47.750;-3.396;2023-05-09T11:10:55;16.30;99.90
46758;DHT22;32509;47.750;-3.396;2023-05-09T11:13:24;16.40;99.90
46758;DHT22;32509;47.750;-3.396;2023-05-09T11:18:27;16.50;99.90
46758;DHT22;32509;47.750;-3.396;2023-05-09T11:20:53;16.50;99.90
46758;DHT22;32509;47.750;-3.396;2023-05-09T11:23:21;16.50;99.90
46758;DHT22;32509;47.750;-3.396;2023-05-09T11:25:51;16.50;99.90
46758;DHT22;32509;47.750;-3.396;2023-05-09T11:28:30;16.60;99.90
46758;DHT22;32509;47.750;-3.396;2023-05-09T11:31:12;16.50;99.90
46758;DHT22;32509;47.750;-3.396;2023-05-09T11:33:40;16.60;99.90
46758;DHT22;32509;47.750;-3.396;2023-05-09T11:39:05;16.60;99.90
46758;DHT22;32509;47.750;-3.396;2023-05-09T11:41:41;16.60;99.90
46758;DHT22;32509;47.750;-3.396;2023-05-09T11:44:19;16.60;99.90
46758;DHT22;32509;47.750;-3.396;2023-05-09T11:46:46;16.60;99.90
46758;DHT22;32509;47.750;-3.396;2023-05-09T11:49:13;16.70;99.90
46758;DHT22;32509;47.750;-3.396;2023-05-09T11:51:40;16.70;99.90
46758;DHT22;32509;47.750;-3.396;2023-05-09T11:54:07;16.70;99.90
46758;DHT22;32509;47.750;-3.396;2023-05-09T11:56:34;16.70;99.90
46758;DHT22;32509;47.750;-3.396;2023-05-09T11:59:01;16.80;99.90
46758;DHT22;32509;47.750;-3.396;2023-05-09T12:01:30;16.80;99.90
46758;DHT22;32509;47.750;-3.396;2023-05-09T12:04:00;16.80;99.90
46758;DHT22;32509;47.750;-3.396;2023-05-09T12:06:26;16.80;99.90
46758;DHT22;32509;47.750;-3.396;2023-05-09T12:08:54;16.80;99.90
46758;DHT22;32509;47.750;-3.396;2023-05-09T12:11:23;16.80;99.90
46758;DHT22;32509;47.750;-3.396;2023-05-09T12:13:50;16.80;99.90
46758;DHT22;32509;47.750;-3.396;2023-05-09T12:16:17;16.80;99.90
46758;DHT22;32509;47.750;-3.396;2023-05-09T12:18:51;16.80;99.90
46758;DHT22;32509;47.750;-3.396;2023-05-09T12:21:18;16.80;99.90
46758;DHT22;32509;47.750;-3.396;2023-05-09T12:23:45;16.80;99.90
46758;DHT22;32509;47.750;-3.396;2023-05-09T12:26:12;16.80;99.90
46758;DHT22;32509;47.750;-3.396;2023-05-09T12:28:38;16.80;99.90
46758;DHT22;32509;47.750;-3.396;2023-05-09T12:31:05;16.80;99.90
46758;DHT22;32509;47.750;-3.396;2023-05-09T12:33:31;16.80;99.90
46758;DHT22;32509;47.750;-3.396;2023-05-09T12:36:03;16.80;99.90
46758;DHT22;32509;47.750;-3.396;2023-05-09T12:38:30;16.80;99.90
46758;DHT22;32509;47.750;-3.396;2023-05-09T12:41:04;16.80;99.90
46758;DHT22;32509;47.750;-3.396;2023-05-09T12:43:37;16.80;99.90
46758;DHT22;32509;47.750;-3.396;2023-05-09T12:46:04;16.80;99.90
46758;DHT22;32509;47.750;-3.396;2023-05-09T12:48:34;16.80;99.90
46758;DHT22;32509;47.750;-3.396;2023-05-09T12:51:05;16.80;99.90
46758;DHT22;32509;47.750;-3.396;2023-05-09T12:53:36;16.80;99.90
46758;DHT22;32509;47.750;-3.396;2023-05-09T12:56:11;16.80;99.90
46758;DHT22;32509;47.750;-3.396;2023-05-09T12:58:38;16.90;99.90
46758;DHT22;32509;47.750;-3.396;2023-05-09T13:01:04;16.90;99.90
46758;DHT22;32509;47.750;-3.396;2023-05-09T13:03:30;16.90;99.90
46758;DHT22;32509;47.750;-3.396;2023-05-09T13:06:04;16.90;99.90
46758;DHT22;32509;47.750;-3.396;2023-05-09T13:08:31;16.90;99.90
46758;DHT22;32509;47.750;-3.396;2023-05-09T13:10:57;16.90;99.90
46758;DHT22;32509;47.750;-3.396;2023-05-09T13:13:25;16.90;99.90
46758;DHT22;32509;47.750;-3.396;2023-05-09T13:15:52;16.90;99.90
46758;DHT22;32509;47.750;-3.396;2023-05-09T13:18:18;16.90;99.90
46758;DHT22;32509;47.750;-3.396;2023-05-09T13:20:43;16.90;99.90
46758;DHT22;32509;47.750;-3.396;2023-05-09T13:23:09;16.90;99.90
46758;DHT22;32509;47.750;-3.396;2023-05-09T13:25:38;16.90;99.90
46758;DHT22;32509;47.750;-3.396;2023-05-09T13:28:04;16.90;99.90
46758;DHT22;32509;47.750;-3.396;2023-05-09T13:30:30;16.90;99.90
46758;DHT22;32509;47.750;-3.396;2023-05-09T13:32:56;16.90;99.90
46758;DHT22;32509;47.750;-3.396;2023-05-09T13:35:22;17.00;99.90
46758;DHT22;32509;47.750;-3.396;2023-05-09T13:37:48;17.00;99.90
46758;DHT22;32509;47.750;-3.396;2023-05-09T13:40:14;17.00;99.90
46758;DHT22;32509;47.750;-3.396;2023-05-09T13:42:40;17.00;99.90
46758;DHT22;32509;47.750;-3.396;2023-05-09T13:45:06;17.00;99.90
46758;DHT22;32509;47.750;-3.396;2023-05-09T13:47:33;16.90;99.90
46758;DHT22;32509;47.750;-3.396;2023-05-09T13:49:58;16.90;99.90
46758;DHT22;32509;47.750;-3.396;2023-05-09T13:52:24;16.90;99.90
46758;DHT22;32509;47.750;-3.396;2023-05-09T13:54:51;16.90;99.90
46758;DHT22;32509;47.750;-3.396;2023-05-09T13:57:17;16.80;99.90
46758;DHT22;32509;47.750;-3.396;2023-05-09T13:59:42;16.90;99.90
46758;DHT22;32509;47.750;-3.396;2023-05-09T14:02:08;16.80;99.90
46758;DHT22;32509;47.750;-3.396;2023-05-09T14:04:35;16.70;99.90
46758;DHT22;32509;47.750;-3.396;2023-05-09T14:07:02;16.70;99.90
46758;DHT22;32509;47.750;-3.396;2023-05-09T14:09:27;16.70;99.90
46758;DHT22;32509;47.750;-3.396;2023-05-09T14:11:54;16.60;99.90
46758;DHT22;32509;47.750;-3.396;2023-05-09T14:14:23;16.70;99.90
46758;DHT22;32509;47.750;-3.396;2023-05-09T14:16:51;16.50;99.90
46758;DHT22;32509;47.750;-3.396;2023-05-09T14:19:18;16.60;99.90
46758;DHT22;32509;47.750;-3.396;2023-05-09T14:21:44;16.50;99.90
46758;DHT22;32509;47.750;-3.396;2023-05-09T14:24:13;16.60;99.90
46758;DHT22;32509;47.750;-3.396;2023-05-09T14:26:39;16.50;99.90
46758;DHT22;32509;47.750;-3.396;2023-05-09T14:29:05;16.50;99.90
46758;DHT22;32509;47.750;-3.396;2023-05-09T14:31:31;16.60;99.90
46758;DHT22;32509;47.750;-3.396;2023-05-09T14:33:58;16.50;99.90
46758;DHT22;32509;47.750;-3.396;2023-05-09T14:36:25;16.60;99.90
46758;DHT22;32509;47.750;-3.396;2023-05-09T14:38:52;16.50;99.90
46758;DHT22;32509;47.750;-3.396;2023-05-09T14:41:20;16.60;99.90
46758;DHT22;32509;47.750;-3.396;2023-05-09T14:43:46;16.50;99.90
46758;DHT22;32509;47.750;-3.396;2023-05-09T14:46:13;16.50;99.90
46758;DHT22;32509;47.750;-3.396;2023-05-09T14:48:39;16.60;99.90
46758;DHT22;32509;47.750;-3.396;2023-05-09T14:51:05;16.60;99.90
46758;DHT22;32509;47.750;-3.396;2023-05-09T14:53:34;16.50;99.90
46758;DHT22;32509;47.750;-3.396;2023-05-09T14:56:14;16.60;99.90
46758;DHT22;32509;47.750;-3.396;2023-05-09T14:58:39;16.60;99.90
46758;DHT22;32509;47.750;-3.396;2023-05-09T15:01:08;16.60;99.90
46758;DHT22;32509;47.750;-3.396;2023-05-09T15:03:34;16.60;99.90
46758;DHT22;32509;47.750;-3.396;2023-05-09T15:06:00;16.50;99.90
46758;DHT22;32509;47.750;-3.396;2023-05-09T15:08:26;16.50;99.90
46758;DHT22;32509;47.750;-3.396;2023-05-09T15:10:52;16.50;99.90
46758;DHT22;32509;47.750;-3.396;2023-05-09T15:13:18;16.50;99.90
46758;DHT22;32509;47.750;-3.396;2023-05-09T15:15:44;16.50;99.90
46758;DHT22;32509;47.750;-3.396;2023-05-09T15:18:10;16.50;99.90
46758;DHT22;32509;47.750;-3.396;2023-05-09T15:20:37;16.50;99.90
46758;DHT22;32509;47.750;-3.396;2023-05-09T15:23:03;16.50;99.90
46758;DHT22;32509;47.750;-3.396;2023-05-09T15:25:31;16.50;99.90
46758;DHT22;32509;47.750;-3.396;2023-05-09T15:27:58;16.40;99.90
46758;DHT22;32509;47.750;-3.396;2023-05-09T15:30:24;16.40;99.90
46758;DHT22;32509;47.750;-3.396;2023-05-09T15:32:50;16.40;99.90
46758;DHT22;32509;47.750;-3.396;2023-05-09T15:35:16;16.40;99.90
46758;DHT22;32509;47.750;-3.396;2023-05-09T15:37:43;16.40;99.90
46758;DHT22;32509;47.750;-3.396;2023-05-09T15:40:09;16.40;99.90
46758;DHT22;32509;47.750;-3.396;2023-05-09T15:42:36;16.40;99.90
46758;DHT22;32509;47.750;-3.396;2023-05-09T15:45:02;16.40;99.90
46758;DHT22;32509;47.750;-3.396;2023-05-09T15:47:28;16.40;99.90
46758;DHT22;32509;47.750;-3.396;2023-05-09T15:49:54;16.30;99.90
46758;DHT22;32509;47.750;-3.396;2023-05-09T15:52:20;16.10;99.90
46758;DHT22;32509;47.750;-3.396;2023-05-09T15:54:46;16.10;99.90
46758;DHT22;32509;47.750;-3.396;2023-05-09T15:57:12;16.00;99.90
46758;DHT22;32509;47.750;-3.396;2023-05-09T15:59:38;16.00;99.90
46758;DHT22;32509;47.750;-3.396;2023-05-09T16:02:04;15.80;99.90
46758;DHT22;32509;47.750;-3.396;2023-05-09T16:04:30;15.80;99.90
46758;DHT22;32509;47.750;-3.396;2023-05-09T16:06:57;15.80;99.90
46758;DHT22;32509;47.750;-3.396;2023-05-09T16:09:25;15.80;99.90